Time;durP1;ratioP1;P1;durP2;ratioP2;P2;SDS_P1;SDS_P2;PMS_P1;PMS_P2;Temp;Humidity;BMP_temperature;BMP_pressure;BME280_temperature;BME280_humidity;BME280_pressure;Samples;Min_cycle;Max_cycle;Signal;HPM_P1;HPM_P2
2023/03/20 00:02:09;;;;;;;;;;;;;;;;;;5074327;28;20002;-69
2023/03/20 00:04:35;;;;;;;;;;;;;;;;;;5074739;28;19909;-68
2023/03/20 00:07:02;;;;;;;;;;;;;;;;;;5074569;28;19991;-69
2023/03/20 00:09:28;;;;;;;;;;;;;;;;;;5072847;28;19962;-69
2023/03/20 00:11:54;;;;;;;;;;;;;;;;;;5073227;28;19912;-69
2023/03/20 00:14:21;;;;;;;;;;;;;;;;;;5074277;28;19921;-69
2023/03/20 00:16:47;;;;;;;;;;;;;;;;;;5073977;28;19908;-69
2023/03/20 00:19:13;;;;;;;;;;;;;;;;;;5074691;28;19958;-69
2023/03/20 00:21:39;;;;;;;;;;;;;;;;;;5072606;28;19999;-69
2023/03/20 00:24:05;;;;;;;;;;;;;;;;;;5074072;28;19947;-69
2023/03/20 00:26:31;;;;;;;;;;;;;;;;;;5073000;28;20360;-70
2023/03/20 00:28:57;;;;;;;;;;;;;;;;;;5073840;28;20272;-70
2023/03/20 00:31:24;;;;;;;;;;;;;;;;;;5074782;28;20349;-70
2023/03/20 00:33:50;;;;;;;;;;;;;;;;;;5072799;28;19940;-70
2023/03/20 00:36:16;;;;;;;;;;;;;;;;;;5072471;28;19920;-70
2023/03/20 00:38:42;;;;;;;;;;;;;;;;;;5074653;28;20375;-69
2023/03/20 00:41:07;;;;;;;;;;;;;;;;;;5074572;28;20234;-69
2023/03/20 00:43:34;;;;;;;;;;;;;;;;;;5073663;28;20265;-69
2023/03/20 00:45:59;;;;;;;;;;;;;;;;;;5074618;28;20349;-69
2023/03/20 00:48:25;;;;;;;;;;;;;;;;;;5074010;28;19914;-69
2023/03/20 00:50:52;;;;;;;;;;;;;;;;;;5073705;28;20008;-69
2023/03/20 00:53:18;;;;;;;;;;;;;;;;;;5073838;28;19959;-69
2023/03/20 00:55:44;;;;;;;;;;;;;;;;;;5073894;28;19940;-69
2023/03/20 00:58:10;;;;;;;;;;;;;;;;;;5073424;28;19964;-69
2023/03/20 01:00:36;;;;;;;;;;;;;;;;;;5073804;28;19966;-69
2023/03/20 01:03:02;;;;;;;;;;;;;;;;;;5074087;28;19912;-69
2023/03/20 01:05:28;;;;;;;;;;;;;;;;;;5073473;28;19909;-69
2023/03/20 01:07:55;;;;;;;;;;;;;;;;;;5073752;28;20454;-69
2023/03/20 01:10:22;;;;;;;;;;;;;;;;;;5073786;28;20277;-69
2023/03/20 01:12:48;;;;;;;;;;;;;;;;;;5072011;28;19973;-69
2023/03/20 01:15:14;;;;;;;;;;;;;;;;;;5073321;28;19925;-69
2023/03/20 01:17:40;;;;;;;;;;;;;;;;;;5073862;28;19999;-69
2023/03/20 01:20:06;;;;;;;;;;;;;;;;;;5073232;28;20001;-69
2023/03/20 01:22:32;;;;;;;;;;;;;;;;;;5073574;28;19915;-69
2023/03/20 01:24:58;;;;;;;;;;;;;;;;;;5073491;28;20353;-69
2023/03/20 01:27:24;;;;;;;;;;;;;;;;;;5073639;28;19908;-68
2023/03/20 01:29:50;;;;;;;;;;;;;;;;;;5073864;28;19909;-69
2023/03/20 01:32:16;;;;;;;;;;;;;;;;;;5073113;28;19916;-68
2023/03/20 01:34:42;;;;;;;;;;;;;;;;;;5072123;28;19959;-68
2023/03/20 01:37:08;;;;;;;;;;;;;;;;;;5077260;28;19908;-68
2023/03/20 01:39:34;;;;;;;;;;;;;;;;;;5077204;28;20264;-68
2023/03/20 01:42:00;;;;;;;;;;;;;;;;;;5078007;28;19915;-68
2023/03/20 01:44:26;;;;;;;;;;;;;;;;;;5077370;28;19913;-68
2023/03/20 01:46:52;;;;;;;;;;;;;;;;;;5077146;28;19934;-70
2023/03/20 01:49:18;;;;;;;;;;;;;;;;;;5077667;28;19951;-69
2023/03/20 01:51:44;;;;;;;;;;;;;;;;;;5075948;28;19944;-69
2023/03/20 01:54:11;;;;;;;;;;;;;;;;;;5076787;28;19916;-69
2023/03/20 01:56:37;;;;;;;;;;;;;;;;;;5077190;28;20288;-70
2023/03/20 01:59:03;;;;;;;;;;;;;;;;;;5075876;28;19970;-69
2023/03/20 02:01:29;;;;;;;;;;;;;;;;;;5076857;28;19909;-69
2023/03/20 02:03:55;;;;;;;;;;;;;;;;;;5077042;28;19915;-69
2023/03/20 02:06:21;;;;;;;;;;;;;;;;;;5075734;28;20364;-69
2023/03/20 02:08:47;;;;;;;;;;;;;;;;;;5075295;28;19952;-69
2023/03/20 02:11:13;;;;;;;;;;;;;;;;;;5077166;28;19959;-69
2023/03/20 02:13:39;;;;;;;;;;;;;;;;;;5076519;28;19921;-69
2023/03/20 02:16:06;;;;;;;;;;;;;;;;;;5075145;28;20013;-69
2023/03/20 02:18:32;;;;;;;;;;;;;;;;;;5077414;28;20254;-69
2023/03/20 02:20:58;;;;;;;;;;;;;;;;;;5076762;28;19908;-69
2023/03/20 02:23:24;;;;;;;;;;;;;;;;;;5076211;28;19909;-68
2023/03/20 02:25:50;;;;;;;;;;;;;;;;;;5075278;28;19909;-68
2023/03/20 02:28:16;;;;;;;;;;;;;;;;;;5074824;28;19912;-68
2023/03/20 02:30:42;;;;;;;;;;;;;;;;;;5076828;28;19916;-69
2023/03/20 02:33:08;;;;;;;;;;;;;;;;;;5075111;28;19912;-69
2023/03/20 02:35:34;;;;;;;;;;;;;;;;;;5075882;28;20007;-69
2023/03/20 02:38:00;;;;;;;;;;;;;;;;;;5076418;28;19915;-69
2023/03/20 02:40:26;;;;;;;;;;;;;;;;;;5076399;28;19912;-69
2023/03/20 02:42:52;;;;;;;;;;;;;;;;;;5076002;28;19995;-68
2023/03/20 02:45:17;;;;;;;;;;;;;;;;;;5076302;28;19908;-69
2023/03/20 02:47:43;;;;;;;;;;;;;;;;;;5075723;28;19912;-68
2023/03/20 02:50:09;;;;;;;;;;;;;;;;;;5075803;28;19915;-68
2023/03/20 02:52:35;;;;;;;;;;;;;;;;;;5076106;28;19931;-68
2023/03/20 02:55:01;;;;;;;;;;;;;;;;;;5076040;28;19962;-68
2023/03/20 02:57:27;;;;;;;;;;;;;;;;;;5074423;28;19916;-68
2023/03/20 02:59:53;;;;;;;;;;;;;;;;;;5074746;28;20003;-68
2023/03/20 03:02:19;;;;;;;;;;;;;;;;;;5074630;28;19915;-68
2023/03/20 03:04:45;;;;;;;;;;;;;;;;;;5075487;28;19908;-68
2023/03/20 03:07:11;;;;;;;;;;;;;;;;;;5074652;28;19978;-68
2023/03/20 03:09:37;;;;;;;;;;;;;;;;;;5074572;28;19955;-68
2023/03/20 03:12:03;;;;;;;;;;;;;;;;;;5075427;28;19915;-68
2023/03/20 03:14:29;;;;;;;;;;;;;;;;;;5075607;28;19967;-68
2023/03/20 03:16:55;;;;;;;;;;;;;;;;;;5075681;28;19927;-69
2023/03/20 03:19:21;;;;;;;;;;;;;;;;;;5075278;28;20428;-69
2023/03/20 03:21:47;;;;;;;;;;;;;;;;;;5075510;28;19908;-69
2023/03/20 03:24:14;;;;;;;;;;;;;;;;;;5075511;28;20391;-69
2023/03/20 03:26:39;;;;;;;;;;;;;;;;;;5075059;28;19909;-69
2023/03/20 03:29:05;;;;;;;;;;;;;;;;;;5074143;28;20006;-69
2023/03/20 03:31:31;;;;;;;;;;;;;;;;;;5074998;28;19908;-69
2023/03/20 03:33:57;;;;;;;;;;;;;;;;;;5075267;28;19920;-70
2023/03/20 03:36:23;;;;;;;;;;;;;;;;;;5075532;28;19915;-70
2023/03/20 03:38:49;;;;;;;;;;;;;;;;;;5074839;28;19912;-69
2023/03/20 03:41:15;;;;;;;;;;;;;;;;;;5075235;28;19954;-69
2023/03/20 03:43:41;;;;;;;;;;;;;;;;;;5075089;28;19915;-69
2023/03/20 03:46:07;;;;;;;;;;;;;;;;;;5074823;28;19909;-70
2023/03/20 03:48:33;;;;;;;;;;;;;;;;;;5075628;28;20320;-69
2023/03/20 03:50:59;;;;;;;;;;;;;;;;;;5074974;28;19909;-68
2023/03/20 03:53:25;;;;;;;;;;;;;;;;;;5073282;28;19962;-68
2023/03/20 03:55:51;;;;;;;;;;;;;;;;;;5073621;28;19952;-68
2023/03/20 03:58:17;;;;;;;;;;;;;;;;;;5073939;28;19908;-69
2023/03/20 04:00:43;;;;;;;;;;;;;;;;;;5073154;28;19931;-68
2023/03/20 04:03:09;;;;;;;;;;;;;;;;;;5074732;28;20271;-68
2023/03/20 04:05:35;;;;;;;;;;;;;;;;;;5074652;28;19908;-68
2023/03/20 04:08:01;;;;;;;;;;;;;;;;;;5074353;28;20330;-68
2023/03/20 04:10:26;;;;;;;;;;;;;;;;;;5074587;28;19908;-69
2023/03/20 04:12:52;;;;;;;;;;;;;;;;;;5074507;28;19909;-70
2023/03/20 04:15:20;;;;;;;;;;;;;;;;;;5073923;28;19920;-69
2023/03/20 04:17:46;;;;;;;;;;;;;;;;;;5074397;28;20361;-68
2023/03/20 04:20:12;;;;;;;;;;;;;;;;;;5074423;28;20004;-70
2023/03/20 04:22:38;;;;;;;;;;;;;;;;;;5073937;28;20352;-69
2023/03/20 04:25:04;;;;;;;;;;;;;;;;;;5074331;28;19954;-69
2023/03/20 04:27:30;;;;;;;;;;;;;;;;;;5072991;28;19931;-69
2023/03/20 04:29:56;;;;;;;;;;;;;;;;;;5072491;28;20372;-69
2023/03/20 04:32:22;;;;;;;;;;;;;;;;;;5074247;28;19924;-69
2023/03/20 04:34:48;;;;;;;;;;;;;;;;;;5073634;28;19917;-69
2023/03/20 04:37:14;;;;;;;;;;;;;;;;;;5072851;28;19948;-70
2023/03/20 04:39:41;;;;;;;;;;;;;;;;;;5074156;28;20288;-70
2023/03/20 04:42:07;;;;;;;;;;;;;;;;;;5072408;28;20253;-70
2023/03/20 04:44:33;;;;;;;;;;;;;;;;;;5072846;28;19909;-70
2023/03/20 04:46:59;;;;;;;;;;;;;;;;;;5074025;28;20428;-70
2023/03/20 04:49:25;;;;;;;;;;;;;;;;;;5073615;28;19908;-70
2023/03/20 04:51:51;;;;;;;;;;;;;;;;;;5072745;28;19908;-70
2023/03/20 04:54:17;;;;;;;;;;;;;;;;;;5072542;28;20283;-70
2023/03/20 04:56:43;;;;;;;;;;;;;;;;;;5073525;28;19909;-71
2023/03/20 04:59:09;;;;;;;;;;;;;;;;;;5072651;28;19909;-71
2023/03/20 05:01:35;;;;;;;;;;;;;;;;;;5073849;28;19954;-71
2023/03/20 05:04:01;;;;;;;;;;;;;;;;;;5073471;28;19912;-71
2023/03/20 05:06:27;;;;;;;;;;;;;;;;;;5072550;28;19912;-69
2023/03/20 05:08:53;;;;;;;;;;;;;;;;;;5073653;28;19915;-69
2023/03/20 05:11:19;;;;;;;;;;;;;;;;;;5073555;28;19909;-69
2023/03/20 05:13:45;;;;;;;;;;;;;;;;;;5073477;28;19960;-69
2023/03/20 05:16:10;;;;;;;;;;;;;;;;;;5074298;28;19915;-69
2023/03/20 05:18:36;;;;;;;;;;;;;;;;;;5073347;28;19912;-70
2023/03/20 05:21:03;;;;;;;;;;;;;;;;;;5074023;28;19991;-70
2023/03/20 05:23:29;;;;;;;;;;;;;;;;;;5073667;28;20279;-70
2023/03/20 05:25:55;;;;;;;;;;;;;;;;;;5073263;28;19909;-69
2023/03/20 05:28:21;;;;;;;;;;;;;;;;;;5073682;28;19908;-70
2023/03/20 05:30:47;;;;;;;;;;;;;;;;;;5073678;28;19999;-70
2023/03/20 05:33:13;;;;;;;;;;;;;;;;;;5073191;28;19913;-70
2023/03/20 05:35:39;;;;;;;;;;;;;;;;;;5072188;28;19924;-69
2023/03/20 05:38:05;;;;;;;;;;;;;;;;;;5073107;28;20353;-70
2023/03/20 05:40:31;;;;;;;;;;;;;;;;;;5073646;28;19963;-70
2023/03/20 05:42:57;;;;;;;;;;;;;;;;;;5070805;28;20154;-70
2023/03/20 05:45:23;;;;;;;;;;;;;;;;;;5071337;28;19943;-68
2023/03/20 05:47:49;;;;;;;;;;;;;;;;;;5073651;28;19916;-69
2023/03/20 05:50:15;;;;;;;;;;;;;;;;;;5073450;28;20291;-69
2023/03/20 05:52:41;;;;;;;;;;;;;;;;;;5072906;28;19908;-68
2023/03/20 05:55:07;;;;;;;;;;;;;;;;;;5073343;28;20383;-69
2023/03/20 05:57:33;;;;;;;;;;;;;;;;;;5073102;28;19908;-69
2023/03/20 05:59:59;;;;;;;;;;;;;;;;;;5070850;28;19916;-69
2023/03/20 06:02:25;;;;;;;;;;;;;;;;;;5069858;28;19908;-69
2023/03/20 06:04:51;;;;;;;;;;;;;;;;;;5071179;28;20339;-68
2023/03/20 06:07:17;;;;;;;;;;;;;;;;;;5069467;28;20003;-69
2023/03/20 06:09:43;;;;;;;;;;;;;;;;;;5069082;28;19962;-73
2023/03/20 06:12:10;;;;;;;;;;;;;;;;;;5071511;28;19908;-73
2023/03/20 06:14:36;;;;;;;;;;;;;;;;;;5071095;28;20343;-74
2023/03/20 06:17:02;;;;;;;;;;;;;;;;;;5073067;28;19908;-76
2023/03/20 06:19:28;;;;;;;;;;;;;;;;;;5072554;28;19964;-68
2023/03/20 06:21:54;;;;;;;;;;;;;;;;;;5072818;28;19909;-69
2023/03/20 06:24:20;;;;;;;;;;;;;;;;;;5075405;28;19915;-69
2023/03/20 06:26:46;;;;;;;;;;;;;;;;;;5073646;28;20015;-68
2023/03/20 06:29:12;;;;;;;;;;;;;;;;;;5070139;28;19920;-69
2023/03/20 06:31:38;;;;;;;;;;;;;;;;;;5075323;28;19913;-69
2023/03/20 06:34:04;;;;;;;;;;;;;;;;;;5071533;28;19919;-67
2023/03/20 06:36:30;;;;;;;;;;;;;;;;;;5071108;28;20007;-66
2023/03/20 06:38:56;;;;;;;;;;;;;;;;;;5072941;28;19967;-67
2023/03/20 06:41:22;;;;;;;;;;;;;;;;;;5059538;28;19944;-68
2023/03/20 06:43:48;;;;;;;;;;;;;;;;;;5054492;28;19913;-67
2023/03/20 06:46:17;;;;;;;;;;;;;;;;;;5085706;28;19970;-67
2023/03/20 06:48:43;;;;;;;;;;;;;;;;;;5053951;28;19912;-68
2023/03/20 06:51:09;;;;;;;;;;;;;;;;;;5052483;28;20360;-69
2023/03/20 06:53:35;;;;;;;;;;;;;;;;;;5053601;28;19920;-70
2023/03/20 06:56:01;;;;;;;;;;;;;;;;;;5068483;28;19916;-70
2023/03/20 06:58:27;;;;;;;;;;;;;;;;;;5075224;28;19908;-68
2023/03/20 07:00:53;;;;;;;;;;;;;;;;;;5073788;28;19912;-69
2023/03/20 07:03:19;;;;;;;;;;;;;;;;;;5075385;28;19908;-70
2023/03/20 07:05:47;;;;;;;;;;;;;;;;;;5073133;28;20019;-70
2023/03/20 07:08:14;;;;;;;;;;;;;;;;;;5073908;28;19966;-70
2023/03/20 07:10:39;;;;;;;;;;;;;;;;;;5074551;28;19912;-70
2023/03/20 07:13:05;;;;;;;;;;;;;;;;;;5072591;28;19912;-70
2023/03/20 07:15:31;;;;;;;;;;;;;;;;;;5072828;28;19923;-69
2023/03/20 07:17:57;;;;;;;;;;;;;;;;;;5069566;28;20356;-70
2023/03/20 07:20:23;;;;;;;;;;;;;;;;;;5071601;28;19915;-69
2023/03/20 07:22:49;;;;;;;;;;;;;;;;;;5071319;28;19909;-69
2023/03/20 07:25:15;;;;;;;;;;;;;;;;;;5067264;28;19995;-69
2023/03/20 07:27:45;;;;;;;;;;;;;;;;;;5071847;28;20045;-69
2023/03/20 07:30:12;;;;;;;;;;;;;;;;;;5071562;28;19912;-68
2023/03/20 07:32:38;;;;;;;;;;;;;;;;;;5069865;28;19996;-71
2023/03/20 07:35:03;;;;;;;;;;;;;;;;;;5069466;28;20053;-68
2023/03/20 07:37:29;;;;;;;;;;;;;;;;;;5068399;28;19920;-68
2023/03/20 07:39:55;;;;;;;;;;;;;;;;;;5068467;28;19909;-69
2023/03/20 07:42:21;;;;;;;;;;;;;;;;;;5071478;28;19909;-70
2023/03/20 07:44:47;;;;;;;;;;;;;;;;;;5071783;28;19915;-69
2023/03/20 07:47:13;;;;;;;;;;;;;;;;;;5072717;28;19909;-71
2023/03/20 07:49:40;;;;;;;;;;;;;;;;;;5061939;28;20350;-68
2023/03/20 07:52:06;;;;;;;;;;;;;;;;;;5065103;28;19970;-70
2023/03/20 07:54:32;;;;;;;;;;;;;;;;;;5070308;28;20340;-70
2023/03/20 07:57:00;;;;;;;;;;;;;;;;;;5072233;28;19908;-70
2023/03/20 07:59:26;;;;;;;;;;;;;;;;;;5071631;28;19913;-68
2023/03/20 08:01:53;;;;;;;;;;;;;;;;;;5070261;28;20003;-70
2023/03/20 08:04:21;;;;;;;;;;;;;;;;;;5070992;28;20000;-72
2023/03/20 08:06:47;;;;;;;;;;;;;;;;;;5072590;28;19923;-72
2023/03/20 08:09:13;;;;;;;;;;;;;;;;;;5070815;28;19913;-70
2023/03/20 08:11:39;;;;;;;;;;;;;;;;;;5071291;28;19931;-69
2023/03/20 08:14:06;;;;;;;;;;;;;;;;;;5070776;28;19928;-70
2023/03/20 08:16:33;;;;;;;;;;;;;;;;;;5071262;28;19979;-70
2023/03/20 08:19:04;;;;;;;;;;;;;;;;;;5070123;28;20245;-70
2023/03/20 08:21:31;;;;;;;;;;;;;;;;;;5070476;28;19936;-69
2023/03/20 08:23:57;;;;;;;;;;;;;;;;;;5070769;28;19962;-70
2023/03/20 08:26:23;;;;;;;;;;;;;;;;;;5072411;28;19909;-70
2023/03/20 08:28:50;;;;;;;;;;;;;;;;;;5071941;28;19909;-71
2023/03/20 08:31:16;;;;;;;;;;;;;;;;;;5072883;28;19916;-71
2023/03/20 08:33:43;;;;;;;;;;;;;;;;;;5070425;28;19908;-70
2023/03/20 08:36:18;;;;;;;;;;;;;;;;;;5072917;28;19919;-71
2023/03/20 08:38:46;;;;;;;;;;;;;;;;;;5071535;28;19909;-69
2023/03/20 08:41:14;;;;;;;;;;;;;;;;;;5072358;28;19919;-69
2023/03/20 08:43:46;;;;;;;;;;;;;;;;;;5068617;28;20302;-70
2023/03/20 08:46:15;;;;;;;;;;;;;;;;;;5069499;28;19916;-70
2023/03/20 08:48:46;;;;;;;;;;;;;;;;;;5066616;28;19920;-69
2023/03/20 08:51:14;;;;;;;;;;;;;;;;;;5070985;28;19912;-72
2023/03/20 08:53:40;;;;;;;;;;;;;;;;;;5070009;28;19958;-68
2023/03/20 08:56:10;;;;;;;;;;;;;;;;;;5070514;28;19912;-70
2023/03/20 08:58:41;;;;;;;;;;;;;;;;;;5070503;28;19938;-69
2023/03/20 09:01:10;;;;;;;;;;;;;;;;;;5071202;28;19962;-70
2023/03/20 09:03:39;;;;;;;;;;;;;;;;;;5065676;28;19966;-70
2023/03/20 09:08:28;;;;;;;;;;;;;;;;;;5098892;27;20330;-69
2023/03/20 09:10:54;;;;;;;;;;;;;;;;;;5107608;28;19912;-68
2023/03/20 09:13:21;;;;;;;;;;;;;;;;;;5096839;28;20405;-69
2023/03/20 09:18:32;;;;;;;;;;;;;;;;;;5089042;27;20410;-68
2023/03/20 09:20:58;;;;;;;;;;;;;;;;;;5088266;28;19913;-69
2023/03/20 09:23:24;;;;;;;;;;;;;;;;;;5087703;28;19912;-71
2023/03/20 09:25:50;;;;;;;;;;;;;;;;;;5085922;28;19919;-70
2023/03/20 09:28:16;;;;;;;;;;;;;;;;;;5079095;28;20279;-70
2023/03/20 09:30:42;;;;;;;;;;;;;;;;;;5083347;28;19912;-70
2023/03/20 09:33:08;;;;;;;;;;;;;;;;;;5085566;28;19915;-68
2023/03/20 09:35:34;;;;;;;;;;;;;;;;;;5084742;28;19908;-68
2023/03/20 09:38:31;;;;;;;;;;;;;;;;;;5083589;27;19916;-67
2023/03/20 09:48:21;;;;;;;;;;;;;;;;;;5016634;27;2826197;-70
2023/03/20 09:50:47;;;;;;;;;;;;;;;;;;5086629;28;20000;-70
2023/03/20 09:55:13;;;;;;;;;;;;;;;;;;5107918;27;20275;-68
2023/03/20 09:57:39;;;;;;;;;;;;;;;;;;5104042;28;19920;-70
2023/03/20 10:01:43;;;;;;;;;;;;;;;;;;5109621;27;19954;-69
2023/03/20 10:06:01;;;;;;;;;;;;;;;;;;5117577;27;20677;-68
2023/03/20 10:10:27;;;;;;;;;;;;;;;;;;5129437;27;19912;-68
2023/03/20 10:13:23;;;;;;;;;;;;;;;;;;5087994;27;19917;-68
2023/03/20 10:17:13;;;;;;;;;;;;;;;;;;5097209;27;2098545;-68
2023/03/20 10:19:39;;;;;;;;;;;;;;;;;;5171298;27;19911;-68
2023/03/20 10:22:05;;;;;;;;;;;;;;;;;;5172180;27;19911;-67
2023/03/20 10:24:31;;;;;;;;;;;;;;;;;;5170571;27;20450;-67
2023/03/20 10:27:27;;;;;;;;;;;;;;;;;;5084486;27;20005;-68
2023/03/20 10:30:03;;;;;;;;;;;;;;;;;;5104681;27;19912;-67
2023/03/20 10:32:29;;;;;;;;;;;;;;;;;;5102379;28;19919;-68
2023/03/20 10:34:55;;;;;;;;;;;;;;;;;;5100910;28;19908;-68
2023/03/20 10:38:52;;;;;;;;;;;;;;;;;;5150283;27;20328;-67
2023/03/20 10:42:17;;;;;;;;;;;;;;;;;;5105430;27;19920;-67
2023/03/20 10:46:09;;;;;;;;;;;;;;;;;;5108615;27;20283;-69
2023/03/20 10:53:18;;;;;;;;;;;;;;;;;;4275366;27;24645485;-68
2023/03/20 10:55:44;;;;;;;;;;;;;;;;;;5132382;27;19912;-69
2023/03/20 10:58:11;;;;;;;;;;;;;;;;;;5151578;27;19918;-72
2023/03/20 11:00:58;;;;;;;;;;;;;;;;;;5150568;27;19958;-70
2023/03/20 11:03:24;;;;;;;;;;;;;;;;;;5151437;27;20366;-68
2023/03/20 11:11:48;;;;;;;;;;;;;;;;;;5089398;27;19916;-68
2023/03/20 11:16:42;;;;;;;;;;;;;;;;;;5068222;28;19920;-67
2023/03/20 11:19:08;;;;;;;;;;;;;;;;;;5067362;28;20011;-67
2023/03/20 11:21:34;;;;;;;;;;;;;;;;;;5066181;28;19908;-67
2023/03/20 11:26:11;;;;;;;;;;;;;;;;;;5148203;27;19916;-66
2023/03/20 11:29:16;;;;;;;;;;;;;;;;;;5147427;27;19922;-67
2023/03/20 11:32:52;;;;;;;;;;;;;;;;;;5130767;27;19933;-67
2023/03/20 11:37:13;;;;;;;;;;;;;;;;;;5088591;27;2288090;-68
2023/03/20 11:39:41;;;;;;;;;;;;;;;;;;5150869;27;20094;-67
2023/03/20 11:44:13;;;;;;;;;;;;;;;;;;5107691;27;19942;-67
2023/03/20 11:46:39;;;;;;;;;;;;;;;;;;5109914;28;19919;-67
2023/03/20 11:49:06;;;;;;;;;;;;;;;;;;5110324;28;19908;-67
2023/03/20 11:51:34;;;;;;;;;;;;;;;;;;5108780;28;19942;-66
2023/03/20 11:54:00;;;;;;;;;;;;;;;;;;5108944;28;20651;-67
2023/03/20 11:57:46;;;;;;;;;;;;;;;;;;5108738;27;19922;-66
2023/03/20 12:00:14;;;;;;;;;;;;;;;;;;5101072;28;19915;-66
2023/03/20 12:02:40;;;;;;;;;;;;;;;;;;5106879;28;19912;-66
2023/03/20 12:05:06;;;;;;;;;;;;;;;;;;5107855;28;20414;-66
2023/03/20 12:07:58;;;;;;;;;;;;;;;;;;5136746;27;19919;-67
2023/03/20 12:10:24;;;;;;;;;;;;;;;;;;5131081;28;19911;-67
2023/03/20 12:12:50;;;;;;;;;;;;;;;;;;5128186;28;20237;-67
2023/03/20 12:15:16;;;;;;;;;;;;;;;;;;5129267;28;19907;-66
2023/03/20 12:17:41;;;;;;;;;;;;;;;;;;5130641;28;19908;-66
2023/03/20 12:20:07;;;;;;;;;;;;;;;;;;5129132;28;19912;-65
2023/03/20 12:22:33;;;;;;;;;;;;;;;;;;5126169;28;19920;-70
2023/03/20 12:25:00;;;;;;;;;;;;;;;;;;5128853;28;19958;-70
2023/03/20 12:28:20;;;;;;;;;;;;;;;;;;5146444;27;20335;-71
2023/03/20 12:30:46;;;;;;;;;;;;;;;;;;5126159;27;19915;-70
2023/03/20 12:33:12;;;;;;;;;;;;;;;;;;5125133;27;20459;-71
2023/03/20 12:35:49;;;;;;;;;;;;;;;;;;5148977;27;19926;-71
2023/03/20 12:38:15;;;;;;;;;;;;;;;;;;5148997;27;19911;-70
2023/03/20 12:43:00;;;;;;;;;;;;;;;;;;5086266;28;19916;-71
2023/03/20 12:46:51;;;;;;;;;;;;;;;;;;5027139;28;19918;-72
2023/03/20 12:49:17;;;;;;;;;;;;;;;;;;5027360;28;20488;-71
2023/03/20 12:51:43;;;;;;;;;;;;;;;;;;5025958;28;19964;-71
2023/03/20 12:54:09;;;;;;;;;;;;;;;;;;5025265;28;19916;-72
2023/03/20 12:58:41;;;;;;;;;;;;;;;;;;5107110;27;19916;-72
2023/03/20 13:01:07;;;;;;;;;;;;;;;;;;5108830;28;19920;-72
2023/03/20 13:03:33;;;;;;;;;;;;;;;;;;5109003;28;20355;-71
2023/03/20 13:05:59;;;;;;;;;;;;;;;;;;5109840;28;19954;-71
2023/03/20 13:08:26;;;;;;;;;;;;;;;;;;5109844;28;19972;-72
2023/03/20 13:10:52;;;;;;;;;;;;;;;;;;5110164;28;19908;-73
2023/03/20 13:13:19;;;;;;;;;;;;;;;;;;5107809;28;19908;-72
2023/03/20 13:15:45;;;;;;;;;;;;;;;;;;5106007;28;19914;-69
2023/03/20 13:18:11;;;;;;;;;;;;;;;;;;5106332;28;19916;-69
2023/03/20 13:20:37;;;;;;;;;;;;;;;;;;5108971;28;19915;-69
2023/03/20 13:23:03;;;;;;;;;;;;;;;;;;5108430;28;19908;-69
2023/03/20 13:26:03;;;;;;;;;;;;;;;;;;5088816;27;19919;-68
2023/03/20 13:28:29;;;;;;;;;;;;;;;;;;5087719;28;19912;-68
2023/03/20 13:30:55;;;;;;;;;;;;;;;;;;5087419;28;19916;-71
2023/03/20 13:33:21;;;;;;;;;;;;;;;;;;5089991;28;19916;-69
2023/03/20 13:35:47;;;;;;;;;;;;;;;;;;5091090;28;20449;-69
2023/03/20 13:38:13;;;;;;;;;;;;;;;;;;5090854;28;19909;-68
2023/03/20 13:40:39;;;;;;;;;;;;;;;;;;5090967;28;19996;-68
2023/03/20 13:43:05;;;;;;;;;;;;;;;;;;5091590;28;19908;-68
2023/03/20 13:45:31;;;;;;;;;;;;;;;;;;5089066;28;19917;-68
2023/03/20 13:47:57;;;;;;;;;;;;;;;;;;5089197;28;19908;-69
2023/03/20 13:50:23;;;;;;;;;;;;;;;;;;5090119;28;19908;-69
2023/03/20 13:52:49;;;;;;;;;;;;;;;;;;5091002;28;19915;-69
2023/03/20 13:55:15;;;;;;;;;;;;;;;;;;5087452;28;19909;-68
2023/03/20 13:57:42;;;;;;;;;;;;;;;;;;5089812;28;20474;-68
2023/03/20 14:00:09;;;;;;;;;;;;;;;;;;5090689;28;20379;-69
2023/03/20 14:02:35;;;;;;;;;;;;;;;;;;5089316;28;19952;-69
2023/03/20 14:05:45;;;;;;;;;;;;;;;;;;5111579;27;19922;-68
2023/03/20 14:08:11;;;;;;;;;;;;;;;;;;5111621;28;19915;-68
2023/03/20 14:10:37;;;;;;;;;;;;;;;;;;5110278;28;19908;-67
2023/03/20 14:13:03;;;;;;;;;;;;;;;;;;5111295;28;19915;-68
2023/03/20 14:15:29;;;;;;;;;;;;;;;;;;5111506;28;20271;-68
2023/03/20 14:19:00;;;;;;;;;;;;;;;;;;5153002;27;19919;-68
2023/03/20 14:21:26;;;;;;;;;;;;;;;;;;5152931;27;19998;-68
2023/03/20 14:25:42;;;;;;;;;;;;;;;;;;5112067;27;19938;-70
2023/03/20 14:29:05;;;;;;;;;;;;;;;;;;5112457;27;19938;-68
2023/03/20 14:31:33;;;;;;;;;;;;;;;;;;5111675;28;20435;-69
2023/03/20 14:33:59;;;;;;;;;;;;;;;;;;5111165;28;20425;-68
2023/03/20 14:38:56;;;;;;;;;;;;;;;;;;5112359;27;19916;-67
2023/03/20 14:41:22;;;;;;;;;;;;;;;;;;5109971;28;20427;-68
2023/03/20 14:43:47;;;;;;;;;;;;;;;;;;5111653;28;19908;-69
2023/03/20 14:46:14;;;;;;;;;;;;;;;;;;5111602;28;19914;-68
2023/03/20 14:48:40;;;;;;;;;;;;;;;;;;5111079;28;19953;-68
2023/03/20 14:51:06;;;;;;;;;;;;;;;;;;5110240;28;19965;-69
2023/03/20 14:53:32;;;;;;;;;;;;;;;;;;5110140;28;19995;-68
2023/03/20 14:57:41;;;;;;;;;;;;;;;;;;5111759;27;19916;-69
2023/03/20 15:03:12;;;;;;;;;;;;;;;;;;5112447;27;19926;-68
2023/03/20 15:07:12;;;;;;;;;;;;;;;;;;5071538;28;19923;-68
2023/03/20 15:10:54;;;;;;;;;;;;;;;;;;5112552;27;19922;-69
2023/03/20 15:13:49;;;;;;;;;;;;;;;;;;5111963;27;19916;-68
2023/03/20 15:16:15;;;;;;;;;;;;;;;;;;5111510;28;20451;-68
2023/03/20 15:18:41;;;;;;;;;;;;;;;;;;5111589;28;19944;-68
2023/03/20 15:23:37;;;;;;;;;;;;;;;;;;5091034;27;19938;-68
2023/03/20 15:29:21;;;;;;;;;;;;;;;;;;5111940;27;19922;-68
2023/03/20 15:31:47;;;;;;;;;;;;;;;;;;5111642;28;20002;-68
2023/03/20 15:34:13;;;;;;;;;;;;;;;;;;5111592;28;19947;-69
2023/03/20 15:36:39;;;;;;;;;;;;;;;;;;5109913;28;19908;-69
2023/03/20 15:39:06;;;;;;;;;;;;;;;;;;5110240;28;19965;-68
2023/03/20 15:41:33;;;;;;;;;;;;;;;;;;5110289;28;19919;-68
2023/03/20 15:45:19;;;;;;;;;;;;;;;;;;5092220;27;19913;-68
2023/03/20 15:47:45;;;;;;;;;;;;;;;;;;5091360;28;19912;-69
2023/03/20 15:50:11;;;;;;;;;;;;;;;;;;5090868;28;19908;-69
2023/03/20 15:53:38;;;;;;;;;;;;;;;;;;5112374;27;19922;-69
2023/03/20 15:56:04;;;;;;;;;;;;;;;;;;5111614;28;20010;-68
2023/03/20 16:00:38;;;;;;;;;;;;;;;;;;5112234;27;19938;-68
2023/03/20 16:03:04;;;;;;;;;;;;;;;;;;5111775;28;19918;-70
2023/03/20 16:09:48;;;;;;;;;;;;;;;;;;5112505;27;19919;-69
2023/03/20 16:15:33;;;;;;;;;;;;;;;;;;5112440;27;19919;-70
2023/03/20 16:17:59;;;;;;;;;;;;;;;;;;5110435;28;19995;-71
2023/03/20 16:20:25;;;;;;;;;;;;;;;;;;5111986;28;19931;-69
2023/03/20 16:22:51;;;;;;;;;;;;;;;;;;5111634;28;19908;-69
2023/03/20 16:25:17;;;;;;;;;;;;;;;;;;5111536;28;20007;-68
2023/03/20 16:29:58;;;;;;;;;;;;;;;;;;5112632;27;19916;-70
2023/03/20 16:32:27;;;;;;;;;;;;;;;;;;5111531;28;19923;-70
2023/03/20 16:34:53;;;;;;;;;;;;;;;;;;5110385;28;20343;-69
2023/03/20 16:37:19;;;;;;;;;;;;;;;;;;5110510;28;19958;-69
2023/03/20 16:39:45;;;;;;;;;;;;;;;;;;5110007;28;19995;-70
2023/03/20 16:42:11;;;;;;;;;;;;;;;;;;5110299;28;19934;-68
2023/03/20 16:44:49;;;;;;;;;;;;;;;;;;5092185;27;19935;-68
2023/03/20 16:47:19;;;;;;;;;;;;;;;;;;5090907;28;19938;-68
2023/03/20 16:49:45;;;;;;;;;;;;;;;;;;5091874;28;19942;-69
2023/03/20 16:52:10;;;;;;;;;;;;;;;;;;5091297;28;19909;-70
2023/03/20 16:54:36;;;;;;;;;;;;;;;;;;5090983;28;19912;-69
2023/03/20 16:58:52;;;;;;;;;;;;;;;;;;5111781;27;19916;-70
2023/03/20 17:02:51;;;;;;;;;;;;;;;;;;5071877;28;20391;-69
2023/03/20 17:08:41;;;;;;;;;;;;;;;;;;5111523;27;19916;-68
2023/03/20 17:11:07;;;;;;;;;;;;;;;;;;5111560;28;19912;-68
2023/03/20 17:13:33;;;;;;;;;;;;;;;;;;5111580;28;19969;-68
2023/03/20 17:16:20;;;;;;;;;;;;;;;;;;5131872;27;20073;-68
2023/03/20 17:18:46;;;;;;;;;;;;;;;;;;5132309;28;19911;-69
2023/03/20 17:21:12;;;;;;;;;;;;;;;;;;5132154;28;20001;-69
2023/03/20 17:27:30;;;;;;;;;;;;;;;;;;5091607;27;19923;-69
2023/03/20 17:29:56;;;;;;;;;;;;;;;;;;5091066;28;19950;-70
2023/03/20 17:32:42;;;;;;;;;;;;;;;;;;5112215;27;19922;-68
2023/03/20 17:35:26;;;;;;;;;;;;;;;;;;5111789;27;19916;-68
2023/03/20 17:38:07;;;;;;;;;;;;;;;;;;5091869;27;19912;-69
2023/03/20 17:40:32;;;;;;;;;;;;;;;;;;5091297;28;19912;-69
2023/03/20 17:42:58;;;;;;;;;;;;;;;;;;5090983;28;19916;-68
2023/03/20 17:50:03;;;;;;;;;;;;;;;;;;5152963;27;19927;-69
2023/03/20 17:52:29;;;;;;;;;;;;;;;;;;5152954;27;19911;-68
2023/03/20 17:54:55;;;;;;;;;;;;;;;;;;5152821;27;19946;-68
2023/03/20 18:02:24;;;;;;;;;;;;;;;;;;5112511;27;19916;-69
2023/03/20 18:04:50;;;;;;;;;;;;;;;;;;5111301;28;19973;-68
2023/03/20 18:07:16;;;;;;;;;;;;;;;;;;5112089;28;19908;-68
2023/03/20 18:09:42;;;;;;;;;;;;;;;;;;5111691;28;20027;-68
2023/03/20 18:12:08;;;;;;;;;;;;;;;;;;5111152;28;19908;-69
2023/03/20 18:14:34;;;;;;;;;;;;;;;;;;5111426;28;20276;-68
2023/03/20 18:17:00;;;;;;;;;;;;;;;;;;5110113;28;19908;-68
2023/03/20 18:19:27;;;;;;;;;;;;;;;;;;5110880;28;19908;-69
2023/03/20 18:23:12;;;;;;;;;;;;;;;;;;5153417;27;19915;-69
2023/03/20 18:25:38;;;;;;;;;;;;;;;;;;5152535;27;19911;-67
2023/03/20 18:28:04;;;;;;;;;;;;;;;;;;5152792;27;20359;-68
2023/03/20 18:30:30;;;;;;;;;;;;;;;;;;5153169;27;19907;-68
2023/03/20 18:32:56;;;;;;;;;;;;;;;;;;5152282;27;19960;-67
2023/03/20 18:36:44;;;;;;;;;;;;;;;;;;5111298;27;19912;-68